createdAt,value
2017-11-15T00:00:28.975Z,17.20
2017-11-15T00:02:56.631Z,12.48
2017-11-15T00:05:24.266Z,13.70
2017-11-15T00:07:51.895Z,18.10
2017-11-15T00:10:19.554Z,15.32
2017-11-15T00:12:47.187Z,17.58
2017-11-15T00:15:14.895Z,14.18
2017-11-15T00:17:43.293Z,16.15
2017-11-15T00:20:10.915Z,14.40
2017-11-15T00:22:38.575Z,15.23
2017-11-15T00:25:06.218Z,14.90
2017-11-15T00:27:33.875Z,15.32
2017-11-15T00:30:01.527Z,17.23
2017-11-15T00:32:29.162Z,15.73
2017-11-15T00:34:56.826Z,13.35
2017-11-15T00:37:24.465Z,17.15
2017-11-15T00:39:52.131Z,13.35
2017-11-15T00:42:19.770Z,15.80
2017-11-15T00:44:47.396Z,17.17
2017-11-15T00:47:15.047Z,19.92
2017-11-15T00:49:42.681Z,14.02
2017-11-15T00:52:10.335Z,20.23
2017-11-15T00:54:37.964Z,17.42
2017-11-15T00:57:05.601Z,16.37
2017-11-15T00:59:34.026Z,17.87
2017-11-15T01:02:01.649Z,17.02
2017-11-15T01:04:29.300Z,15.85
2017-11-15T01:06:56.937Z,17.23
2017-11-15T01:09:24.568Z,20.08
2017-11-15T01:11:52.220Z,20.05
2017-11-15T01:14:19.855Z,24.27
2017-11-15T01:16:47.512Z,19.35
2017-11-15T01:19:15.135Z,18.05
2017-11-15T01:21:43.536Z,23.45
2017-11-15T01:24:11.191Z,18.75
2017-11-15T01:26:38.845Z,18.50
2017-11-15T01:29:06.502Z,17.40
2017-11-15T01:31:34.129Z,21.40
2017-11-15T01:34:01.771Z,17.37
2017-11-15T01:36:29.424Z,18.90
2017-11-15T01:38:57.052Z,24.65
2017-11-15T01:41:24.704Z,19.05
2017-11-15T01:43:52.356Z,22.13
2017-11-15T01:46:20.138Z,18.45
2017-11-15T01:48:47.799Z,18.00
2017-11-15T01:51:15.422Z,27.95
2017-11-15T01:53:43.116Z,21.77
2017-11-15T01:56:11.507Z,23.67
2017-11-15T01:58:39.126Z,23.38
2017-11-15T02:01:14.620Z,20.30
2017-11-15T02:03:42.243Z,25.37
2017-11-15T02:06:09.900Z,22.73
2017-11-15T02:08:37.533Z,23.25
2017-11-15T02:11:05.168Z,22.20
2017-11-15T02:13:32.832Z,22.35
2017-11-15T02:16:00.452Z,22.23
2017-11-15T02:18:28.110Z,23.80
2017-11-15T02:20:55.747Z,24.08
2017-11-15T02:23:23.379Z,24.73
2017-11-15T02:25:51.044Z,24.87
2017-11-15T02:28:18.664Z,21.42
2017-11-15T02:30:46.345Z,25.67
2017-11-15T02:33:13.963Z,26.80
2017-11-15T02:35:41.595Z,25.45
2017-11-15T02:38:10.017Z,25.45
2017-11-15T02:40:37.653Z,23.87
2017-11-15T02:43:05.306Z,21.55
2017-11-15T02:45:32.948Z,23.45
2017-11-15T02:48:00.577Z,20.37
2017-11-15T02:50:28.250Z,24.12
2017-11-15T02:52:55.868Z,24.40
2017-11-15T02:55:23.529Z,24.90
2017-11-15T02:57:51.151Z,29.55
2017-11-15T03:00:18.791Z,24.17
2017-11-15T03:02:46.443Z,24.23
2017-11-15T03:05:14.080Z,26.02
2017-11-15T03:07:41.736Z,23.73
2017-11-15T03:10:09.353Z,22.40
2017-11-15T03:12:36.996Z,28.62
2017-11-15T03:15:04.646Z,23.80
2017-11-15T03:17:32.262Z,29.52
2017-11-15T03:19:59.920Z,27.58
2017-11-15T03:22:27.548Z,21.33
2017-11-15T03:24:55.172Z,26.62
2017-11-15T03:27:22.834Z,33.67
2017-11-15T03:29:50.487Z,27.17
2017-11-15T03:32:18.152Z,25.45
2017-11-15T03:34:45.778Z,31.90
2017-11-15T03:37:13.392Z,26.80
2017-11-15T03:39:41.047Z,27.83
2017-11-15T03:42:08.668Z,27.15
2017-11-15T03:44:37.102Z,25.23
2017-11-15T03:47:04.722Z,27.55
2017-11-15T03:49:32.344Z,31.95
2017-11-15T03:52:00.023Z,38.42
2017-11-15T03:54:27.657Z,26.40
2017-11-15T03:56:55.328Z,33.58
2017-11-15T03:59:22.964Z,31.33
2017-11-15T04:01:50.645Z,31.85
2017-11-15T04:04:18.295Z,28.87
2017-11-15T04:06:46.686Z,28.92
2017-11-15T04:09:14.343Z,30.55
2017-11-15T04:11:41.968Z,28.15
2017-11-15T04:14:10.361Z,28.73
2017-11-15T04:16:38.023Z,32.10
2017-11-15T04:19:05.642Z,30.15
2017-11-15T04:21:33.292Z,30.05
2017-11-15T04:24:00.914Z,32.47
2017-11-15T04:26:29.295Z,33.72
2017-11-15T04:28:56.973Z,32.22
2017-11-15T04:31:24.613Z,31.95
2017-11-15T04:33:52.270Z,30.45
2017-11-15T04:36:19.915Z,31.83
2017-11-15T04:38:47.545Z,29.25
2017-11-15T04:41:15.194Z,32.40
2017-11-15T04:43:43.706Z,28.38
2017-11-15T04:46:11.470Z,29.98
2017-11-15T04:48:39.860Z,27.15
2017-11-15T04:51:07.494Z,31.98
2017-11-15T04:53:35.160Z,29.27
2017-11-15T04:56:02.865Z,28.70
2017-11-15T04:58:30.515Z,31.95
2017-11-15T05:00:58.171Z,35.85
2017-11-15T05:03:26.551Z,28.73
2017-11-15T05:05:54.211Z,32.47
2017-11-15T05:08:21.827Z,31.30
2017-11-15T05:10:50.245Z,36.60
2017-11-15T05:13:17.875Z,27.67
2017-11-15T05:15:45.500Z,29.40
2017-11-15T05:18:13.152Z,28.38
2017-11-15T05:20:40.775Z,27.20
2017-11-15T05:23:09.251Z,29.45
2017-11-15T05:25:37.642Z,25.98
2017-11-15T05:28:05.260Z,27.92
2017-11-15T05:30:32.917Z,29.37
2017-11-15T05:33:00.536Z,29.58
2017-11-15T05:35:28.187Z,26.37
2017-11-15T05:37:56.609Z,29.83
2017-11-15T05:40:24.252Z,30.20
2017-11-15T05:42:51.906Z,22.48
2017-11-15T05:45:19.535Z,28.20
2017-11-15T05:47:47.207Z,31.85
2017-11-15T05:50:14.827Z,29.42
2017-11-15T05:52:42.454Z,31.52
2017-11-15T05:55:10.110Z,27.08
2017-11-15T05:57:37.741Z,28.80
2017-11-15T06:00:06.168Z,31.58
2017-11-15T06:02:33.797Z,30.67
2017-11-15T06:05:01.415Z,28.10
2017-11-15T06:07:29.062Z,26.27
2017-11-15T06:09:56.683Z,28.85
2017-11-15T06:12:25.141Z,29.65
2017-11-15T06:14:53.604Z,29.77
2017-11-15T06:17:21.256Z,32.67
2017-11-15T06:19:48.872Z,29.20
2017-11-15T06:22:16.530Z,26.75
2017-11-15T06:24:44.293Z,32.60
2017-11-15T06:27:11.961Z,30.90
2017-11-15T06:29:39.686Z,36.78
2017-11-15T06:32:08.036Z,36.05
2017-11-15T06:34:35.659Z,28.85
2017-11-15T06:37:03.326Z,34.22
2017-11-15T06:39:30.987Z,29.90
2017-11-15T06:41:58.602Z,28.60
2017-11-15T06:44:26.262Z,32.35
2017-11-15T06:46:53.891Z,33.05
2017-11-15T06:49:22.394Z,37.53
2017-11-15T06:51:50.821Z,40.47
2017-11-15T06:54:18.443Z,32.58
2017-11-15T06:56:46.071Z,31.55
2017-11-15T06:59:14.492Z,34.30
2017-11-15T07:01:42.103Z,30.25
2017-11-15T07:04:09.729Z,33.10
2017-11-15T07:06:37.398Z,36.13
2017-11-15T07:09:05.027Z,29.17
2017-11-15T07:11:32.648Z,35.20
2017-11-15T07:14:01.071Z,31.60
2017-11-15T07:16:28.692Z,40.92
2017-11-15T07:18:56.311Z,26.90
2017-11-15T07:21:23.984Z,35.53
2017-11-15T07:23:52.380Z,36.08
2017-11-15T07:26:20.036Z,31.02
2017-11-15T07:28:47.652Z,29.65
2017-11-15T07:31:15.276Z,32.50
2017-11-15T07:33:42.924Z,33.15
2017-11-15T07:36:10.551Z,36.30
2017-11-15T07:38:38.195Z,31.73
2017-11-15T07:41:05.808Z,24.10
2017-11-15T07:43:33.425Z,26.90
2017-11-15T07:46:01.837Z,25.12
2017-11-15T07:48:29.458Z,24.35
2017-11-15T07:50:57.116Z,26.10
2017-11-15T07:53:24.730Z,31.12
2017-11-15T07:55:53.115Z,26.05
2017-11-15T07:58:20.769Z,26.10
2017-11-15T08:00:48.387Z,27.77
2017-11-15T08:03:16.807Z,23.35
2017-11-15T08:05:44.420Z,27.42
2017-11-15T08:08:12.071Z,23.98
2017-11-15T08:10:39.723Z,30.67
2017-11-15T08:13:07.351Z,28.25
2017-11-15T08:15:35.007Z,29.23
2017-11-15T08:18:02.654Z,27.62
2017-11-15T08:20:31.065Z,25.25
2017-11-15T08:22:58.715Z,27.73
2017-11-15T08:25:26.336Z,27.65
2017-11-15T08:27:54.755Z,21.95
2017-11-15T08:30:22.390Z,19.37
2017-11-15T08:32:50.027Z,21.70
2017-11-15T08:35:17.683Z,20.83
2017-11-15T08:37:45.319Z,23.77
2017-11-15T08:40:12.978Z,22.35
2017-11-15T08:42:40.661Z,25.10
2017-11-15T08:45:08.286Z,24.95
2017-11-15T08:47:35.943Z,26.65
2017-11-15T08:50:03.567Z,26.40
2017-11-15T08:52:31.223Z,20.62
2017-11-15T08:54:58.852Z,25.65
2017-11-15T08:57:26.473Z,22.17
2017-11-15T08:59:54.133Z,24.80
2017-11-15T09:02:21.761Z,22.50
2017-11-15T09:04:49.471Z,24.50
2017-11-15T09:07:17.096Z,23.98
2017-11-15T09:09:44.726Z,25.35
2017-11-15T09:12:12.382Z,22.10
2017-11-15T09:14:40.003Z,19.23
2017-11-15T09:17:07.656Z,24.90
2017-11-15T09:19:35.315Z,24.23
2017-11-15T09:22:02.926Z,27.13
2017-11-15T09:24:30.576Z,21.60
2017-11-15T09:26:58.210Z,24.55
2017-11-15T09:29:25.868Z,26.15
2017-11-15T09:31:54.266Z,26.08
2017-11-15T09:34:21.887Z,24.15
2017-11-15T09:36:50.305Z,24.23
2017-11-15T09:39:17.922Z,25.27
2017-11-15T09:41:45.574Z,20.30
2017-11-15T09:44:13.200Z,22.17
2017-11-15T09:46:40.842Z,22.55
2017-11-15T09:49:09.271Z,22.23
2017-11-15T09:51:36.903Z,22.90
2017-11-15T09:54:04.547Z,25.67
2017-11-15T09:56:32.178Z,24.25
2017-11-15T09:58:59.815Z,24.77
2017-11-15T10:01:27.487Z,21.55
2017-11-15T10:03:55.109Z,20.73
2017-11-15T10:06:22.760Z,23.33
2017-11-15T10:08:50.412Z,20.95
2017-11-15T10:11:18.031Z,20.80
2017-11-15T10:13:45.691Z,20.23
2017-11-15T10:16:13.316Z,19.48
2017-11-15T10:18:41.732Z,21.83
2017-11-15T10:21:09.385Z,20.42
2017-11-15T10:23:37.047Z,20.20
2017-11-15T10:26:04.672Z,18.95
2017-11-15T10:28:32.291Z,20.35
2017-11-15T10:30:59.957Z,17.90
2017-11-15T10:33:27.615Z,18.27
2017-11-15T10:35:55.271Z,20.50
2017-11-15T10:38:22.887Z,21.70
2017-11-15T10:40:51.587Z,18.27
2017-11-15T10:43:19.268Z,20.62
2017-11-15T10:45:46.925Z,20.60
2017-11-15T10:48:14.579Z,19.83
2017-11-15T10:50:42.209Z,20.73
2017-11-15T10:53:09.872Z,18.75
2017-11-15T10:55:37.502Z,18.33
2017-11-15T10:58:05.152Z,18.17
2017-11-15T11:00:38.460Z,20.77
2017-11-15T11:03:06.873Z,19.83
2017-11-15T11:05:34.506Z,18.48
2017-11-15T11:08:02.154Z,19.27
2017-11-15T11:10:29.827Z,21.05
2017-11-15T11:12:57.455Z,19.87
2017-11-15T11:15:25.111Z,19.95
2017-11-15T11:17:52.735Z,19.95
2017-11-15T11:20:21.823Z,19.95
2017-11-15T11:22:49.481Z,19.10
2017-11-15T11:25:17.112Z,21.15
2017-11-15T11:27:44.768Z,18.62
2017-11-15T11:30:12.400Z,20.00
2017-11-15T11:32:40.029Z,22.73
2017-11-15T11:35:08.443Z,22.00
2017-11-15T11:37:36.091Z,21.83
2017-11-15T11:40:03.743Z,20.73
2017-11-15T11:42:31.380Z,18.23
2017-11-15T11:44:59.005Z,16.73
2017-11-15T11:47:26.659Z,19.10
2017-11-15T11:49:54.282Z,16.50
2017-11-15T11:52:21.926Z,16.70
2017-11-15T11:54:49.541Z,19.92
2017-11-15T11:57:17.195Z,22.83
2017-11-15T11:59:44.879Z,23.58
2017-11-15T12:02:12.512Z,17.30
2017-11-15T12:04:40.172Z,19.10
2017-11-15T12:07:07.796Z,17.87
2017-11-15T12:09:36.180Z,17.23
2017-11-15T12:12:03.825Z,15.35
2017-11-15T12:14:31.445Z,16.85
2017-11-15T12:16:59.863Z,22.00
2017-11-15T12:19:27.491Z,19.50
2017-11-15T12:21:55.120Z,16.50
2017-11-15T12:24:22.763Z,20.62
2017-11-15T12:26:50.392Z,17.17
2017-11-15T12:29:18.805Z,19.52
2017-11-15T12:31:46.433Z,17.73
2017-11-15T12:34:14.067Z,19.90
2017-11-15T12:36:41.714Z,19.05
2017-11-15T12:39:09.333Z,19.45
2017-11-15T12:41:37.756Z,18.65
2017-11-15T12:44:05.370Z,21.85
2017-11-15T12:46:32.995Z,22.70
2017-11-15T12:49:01.416Z,24.20
2017-11-15T12:51:29.035Z,21.37
2017-11-15T12:53:56.699Z,20.50
2017-11-15T12:56:24.318Z,22.95
2017-11-15T12:58:52.699Z,21.73
2017-11-15T13:01:20.348Z,20.98
2017-11-15T13:03:47.975Z,25.58
2017-11-15T13:06:15.623Z,21.30
2017-11-15T13:08:43.243Z,19.70
2017-11-15T13:11:10.867Z,22.77
2017-11-15T13:13:38.533Z,20.23
2017-11-15T13:16:06.156Z,20.67
2017-11-15T13:18:33.804Z,18.45
2017-11-15T13:21:01.426Z,20.73
2017-11-15T13:23:29.063Z,23.00
2017-11-15T13:25:56.720Z,22.90
2017-11-15T13:28:24.352Z,22.83
2017-11-15T13:30:52.021Z,25.92
2017-11-15T13:33:19.640Z,23.00
2017-11-15T13:35:47.359Z,22.62
2017-11-15T13:38:15.795Z,22.10
2017-11-15T13:40:43.416Z,23.08
2017-11-15T13:43:11.076Z,23.08
2017-11-15T13:45:38.692Z,26.12
2017-11-15T13:48:06.308Z,21.02
2017-11-15T13:50:34.728Z,20.58
2017-11-15T13:53:02.347Z,22.10
2017-11-15T13:55:30.013Z,26.40
2017-11-15T13:57:57.641Z,25.08
2017-11-15T14:00:25.258Z,20.40
2017-11-15T14:02:53.676Z,19.75
2017-11-15T14:05:21.366Z,20.90
2017-11-15T14:07:49.801Z,21.12
2017-11-15T14:10:17.427Z,22.95
2017-11-15T14:12:45.052Z,23.10
2017-11-15T14:15:12.708Z,25.05
2017-11-15T14:17:40.333Z,28.45
2017-11-15T14:20:08.752Z,20.95
2017-11-15T14:22:36.383Z,21.58
2017-11-15T14:25:04.006Z,21.90
2017-11-15T14:27:31.659Z,21.33
2017-11-15T14:29:59.283Z,20.55
2017-11-15T14:32:26.939Z,21.10
2017-11-15T14:34:54.647Z,20.42
2017-11-15T14:37:22.276Z,21.58
2017-11-15T14:39:49.935Z,22.37
2017-11-15T14:42:17.564Z,24.33
2017-11-15T14:44:45.238Z,18.15
2017-11-15T14:47:13.216Z,19.83
2017-11-15T14:49:41.608Z,20.67
2017-11-15T14:52:10.483Z,22.17
2017-11-15T14:54:38.418Z,20.90
2017-11-15T14:57:06.070Z,20.05
2017-11-15T14:59:33.690Z,19.77
2017-11-15T15:02:02.112Z,19.87
2017-11-15T15:04:29.726Z,22.37
2017-11-15T15:06:57.347Z,26.45
2017-11-15T15:09:25.000Z,24.70
2017-11-15T15:11:53.378Z,24.35
2017-11-15T15:14:21.800Z,20.98
2017-11-15T15:16:49.436Z,19.05
2017-11-15T15:19:17.091Z,28.70
2017-11-15T15:21:44.751Z,21.87
2017-11-15T15:24:12.442Z,21.25
2017-11-15T15:26:40.100Z,19.73
2017-11-15T15:29:07.739Z,19.55
2017-11-15T15:31:35.391Z,21.33
2017-11-15T15:34:03.073Z,19.60
2017-11-15T15:36:30.736Z,23.27
2017-11-15T15:38:58.539Z,25.12
2017-11-15T15:41:26.167Z,23.23
2017-11-15T15:43:53.819Z,22.15
2017-11-15T15:46:21.467Z,20.75
2017-11-15T15:48:49.131Z,19.48
2017-11-15T15:51:16.808Z,18.98
2017-11-15T15:53:44.703Z,19.62
2017-11-15T15:56:12.334Z,19.10
2017-11-15T15:58:40.723Z,19.37
2017-11-15T16:01:08.395Z,18.23
2017-11-15T16:03:36.035Z,18.48
2017-11-15T16:06:05.012Z,15.10
2017-11-15T16:08:32.642Z,17.02
2017-11-15T16:11:00.302Z,18.00
2017-11-15T16:13:27.918Z,17.52
2017-11-15T16:15:56.300Z,17.08
2017-11-15T16:18:23.948Z,18.42
2017-11-15T16:20:51.563Z,17.30
2017-11-15T16:23:19.983Z,18.80
2017-11-15T16:25:47.609Z,19.50
2017-11-15T16:28:15.279Z,18.37
2017-11-15T16:30:42.904Z,19.40
2017-11-15T16:33:10.549Z,19.90
2017-11-15T16:35:38.318Z,17.70
2017-11-15T16:38:05.959Z,18.92
2017-11-15T16:40:33.636Z,19.60
2017-11-15T16:43:01.276Z,21.98
2017-11-15T16:45:28.941Z,21.15
2017-11-15T16:47:56.563Z,26.55
2017-11-15T16:50:24.199Z,21.23
2017-11-15T16:52:51.994Z,25.05
2017-11-15T16:55:20.404Z,23.48
2017-11-15T16:57:48.060Z,25.05
2017-11-15T17:00:15.692Z,23.12
2017-11-15T17:02:43.385Z,19.92
2017-11-15T17:05:11.024Z,19.48
2017-11-15T17:07:38.761Z,19.75
2017-11-15T17:10:06.424Z,23.92
2017-11-15T17:12:34.056Z,19.75
2017-11-15T17:15:01.813Z,18.33
2017-11-15T17:17:29.451Z,20.37
2017-11-15T17:19:57.112Z,19.20
2017-11-15T17:22:24.734Z,17.52
2017-11-15T17:24:52.395Z,16.83
2017-11-15T17:27:20.048Z,19.20
2017-11-15T17:29:49.515Z,18.95
2017-11-15T17:32:18.041Z,17.33
2017-11-15T17:34:45.692Z,17.90
2017-11-15T17:37:13.354Z,19.15
2017-11-15T17:39:41.983Z,18.92
2017-11-15T17:42:09.619Z,17.50
2017-11-15T17:44:37.280Z,19.98
2017-11-15T17:47:06.455Z,19.37
2017-11-15T17:49:34.989Z,17.10
2017-11-15T17:52:02.649Z,18.92
2017-11-15T17:57:05.943Z,18.27
2017-11-15T17:59:34.387Z,18.58
2017-11-15T18:02:02.508Z,19.27
2017-11-15T18:04:30.323Z,19.92
2017-11-15T18:06:58.762Z,20.02
2017-11-15T18:09:28.272Z,22.17
2017-11-15T18:11:56.734Z,18.65
2017-11-15T18:14:25.933Z,21.17
2017-11-15T18:16:54.980Z,23.08
2017-11-15T18:19:22.606Z,16.23
2017-11-15T18:21:50.235Z,22.48
2017-11-15T18:24:17.888Z,24.42
2017-11-15T18:26:45.518Z,27.05
2017-11-15T18:29:14.213Z,22.13
2017-11-15T18:31:41.834Z,23.40
2017-11-15T18:34:09.686Z,23.50
2017-11-15T18:36:38.740Z,30.52
2017-11-15T18:39:06.411Z,28.83
2017-11-15T18:41:34.074Z,26.75
2017-11-15T18:44:01.710Z,27.37
2017-11-15T18:46:31.574Z,22.95
2017-11-15T18:49:00.588Z,22.27
2017-11-15T18:51:28.246Z,23.80
2017-11-15T18:53:55.882Z,22.23
2017-11-15T18:56:23.513Z,23.90
2017-11-15T18:58:51.941Z,20.80
2017-11-15T19:01:19.554Z,22.10
2017-11-15T19:03:47.227Z,21.95
2017-11-15T19:06:16.638Z,21.58
2017-11-15T19:08:44.297Z,27.23
2017-11-15T19:11:13.075Z,23.83
2017-11-15T19:13:42.653Z,23.75
2017-11-15T19:16:10.311Z,22.92
2017-11-15T19:18:37.956Z,27.08
2017-11-15T19:21:05.619Z,27.10
2017-11-15T19:23:33.235Z,24.10
2017-11-15T19:26:01.012Z,23.73
2017-11-15T19:28:29.437Z,27.05
2017-11-15T19:30:57.069Z,21.75
2017-11-15T19:33:24.762Z,24.10
2017-11-15T19:35:52.485Z,27.83
2017-11-15T19:38:20.149Z,26.55
2017-11-15T19:40:48.550Z,23.83
2017-11-15T19:43:16.203Z,22.42
2017-11-15T19:45:43.844Z,24.65
2017-11-15T19:48:11.511Z,23.12
2017-11-15T19:50:39.143Z,23.02
2017-11-15T19:53:06.764Z,22.75
2017-11-15T19:55:34.425Z,26.73
2017-11-15T19:58:02.048Z,24.50
2017-11-15T20:00:30.468Z,24.35
2017-11-15T20:02:58.092Z,28.30
2017-11-15T20:05:25.759Z,23.05
2017-11-15T20:07:53.409Z,23.70
2017-11-15T20:10:21.260Z,25.45
2017-11-15T20:12:49.026Z,21.87
2017-11-15T20:15:17.441Z,24.25
2017-11-15T20:17:45.175Z,21.02
2017-11-15T20:20:13.700Z,22.05
2017-11-15T20:22:41.395Z,24.70
2017-11-15T20:25:09.013Z,27.05
2017-11-15T20:27:37.561Z,19.50
2017-11-15T20:30:05.243Z,22.55
2017-11-15T20:32:33.640Z,23.25
2017-11-15T20:35:01.301Z,23.62
2017-11-15T20:37:28.927Z,23.73
2017-11-15T20:39:56.581Z,24.33
2017-11-15T20:42:24.211Z,26.20
2017-11-15T20:44:51.845Z,28.90
2017-11-15T20:47:19.505Z,24.52
2017-11-15T20:49:47.386Z,25.30
2017-11-15T20:52:15.061Z,27.48
2017-11-15T20:54:42.729Z,26.35
2017-11-15T20:57:11.392Z,30.15
2017-11-15T20:59:41.284Z,30.23
2017-11-15T21:02:08.911Z,27.58
2017-11-15T21:04:36.604Z,26.23
2017-11-15T21:07:05.005Z,25.55
2017-11-15T21:09:32.680Z,28.52
2017-11-15T21:12:00.302Z,25.27
2017-11-15T21:14:28.032Z,27.48
2017-11-15T21:16:55.663Z,30.88
2017-11-15T21:19:23.290Z,24.42
2017-11-15T21:21:51.709Z,29.05
2017-11-15T21:24:19.340Z,28.42
2017-11-15T21:26:47.017Z,27.17
2017-11-15T21:29:14.651Z,30.27
2017-11-15T21:31:42.319Z,29.00
2017-11-15T21:34:10.009Z,26.45
2017-11-15T21:36:37.826Z,30.83
2017-11-15T21:39:05.482Z,33.35
2017-11-15T21:41:33.868Z,27.75
2017-11-15T21:44:01.521Z,35.53
2017-11-15T21:46:29.140Z,32.50
2017-11-15T21:48:57.579Z,29.87
2017-11-15T21:51:25.212Z,30.85
2017-11-15T21:53:52.847Z,29.85
2017-11-15T21:56:20.519Z,31.95
2017-11-15T21:58:48.145Z,26.85
2017-11-15T22:01:15.818Z,33.72
2017-11-15T22:03:43.613Z,35.80
2017-11-15T22:06:11.282Z,32.25
2017-11-15T22:08:38.908Z,38.67
2017-11-15T22:11:06.531Z,31.95
2017-11-15T22:13:34.961Z,34.72
2017-11-15T22:16:02.618Z,36.72
2017-11-15T22:18:30.282Z,38.40
2017-11-15T22:20:58.676Z,31.50
2017-11-15T22:23:26.412Z,35.33
2017-11-15T22:25:54.056Z,37.67
2017-11-15T22:28:21.806Z,32.72
2017-11-15T22:30:49.488Z,31.10
2017-11-15T22:33:17.146Z,35.92
2017-11-15T22:35:44.831Z,29.92
2017-11-15T22:38:13.285Z,37.33
2017-11-15T22:40:40.944Z,30.37
2017-11-15T22:43:09.353Z,35.78
2017-11-15T22:45:37.013Z,35.83
2017-11-15T22:48:05.487Z,35.97
2017-11-15T22:50:33.117Z,38.35
2017-11-15T22:53:00.784Z,35.25
2017-11-15T22:55:28.399Z,40.25
2017-11-15T22:57:56.071Z,40.05
2017-11-15T23:00:23.719Z,40.45
2017-11-15T23:02:51.343Z,35.75
2017-11-15T23:05:18.995Z,42.83
2017-11-15T23:07:46.622Z,38.65
2017-11-15T23:10:14.331Z,45.42
2017-11-15T23:12:41.964Z,35.22
2017-11-15T23:15:09.625Z,35.95
2017-11-15T23:17:37.247Z,32.53
2017-11-15T23:20:04.879Z,34.95
2017-11-15T23:25:06.463Z,37.20
2017-11-15T23:27:34.120Z,42.85
2017-11-15T23:30:02.519Z,39.72
2017-11-15T23:32:30.137Z,35.60
2017-11-15T23:34:58.572Z,35.80
2017-11-15T23:39:59.079Z,39.28
2017-11-15T23:42:26.703Z,41.00
2017-11-15T23:44:54.344Z,40.80
2017-11-15T23:47:22.254Z,36.42
2017-11-15T23:49:50.654Z,34.67
2017-11-15T23:52:18.321Z,32.78
2017-11-15T23:54:45.961Z,33.28
2017-11-15T23:57:13.591Z,31.27
2017-11-15T23:59:41.247Z,32.40
